SAZT/TDL METAR and TAF weather

Enter ICAO airport designator
Station Type Date Time Source
SAZT METAR 2020/02/18 11:05 UTC NOAA

SAZT 181105Z 21013KT 9999 SCT010 16/14 Q1007


Station Type Date Time Source
SAZT Decoded METAR 2020/02/18 11:05 UTC NOAA

Tandil Aerodrome, Argentina (SAZT) 37-14S 059-15W 175M
Feb 18, 2020 - 06:05 AM EST / 2020.02.18 1105 UTC
Wind: from the SSW (210 degrees) at 15 MPH (13 KT):0
Visibility: greater than 7 mile(s):0
Sky conditions: partly cloudy
Temperature: 60 F (16 C)
Dew Point: 57 F (14 C)
Relative Humidity: 87%
Pressure (altimeter): 29.74 in. Hg (1007 hPa)
ob: SAZT 181105Z 21013KT 9999 SCT010 16/14 Q1007
cycle: 11

Station Type Date Time Source
SAZT TAF UTC NOAA

Error!

Example: see airport list